Terminal Aerodrome Forecast
Issued by NWS Cleveland, OH

Home | Current Version | Previous Version | Text Only | Print | Product List | Glossary Off
Versions: 1 2 3 4 5 6 7 8 9 10 11 12 13 14 15 16 17 18 19 20 21 22 23 24 25 26 27 28 29 30 31

000
FTUS41 KCLE 260710 AAA
TAFCLE
TAF AMD
KCLE 260710Z 2607/2712 29010KT P6SM BKN050 OVC080
      TEMPO 2607/2609 3SM -TSRA BR OVC030CB
     FM260900 23011KT P6SM VCSH SCT030 OVC100
     FM261400 31012KT 6SM BR VCSH OVC015
     FM261900 02015KT 6SM BR OVC012
     FM270200 03010KT P6SM BKN020=

USA.gov is the U.S. government's official web portal to all federal, state and local government web resources and services.